Kings Beach, California
Current Conditions -  °F | °C
As of 3:55 PM on Saturday 22 Nov 2014 (Local Time) from KTRK Reporting Station
Light Rain Light Rain  
Wind Chill: 34°   Ceiling: 3000
Heat Index: 41°   Visibility: 10mi
Dew Point: 34°   Wind: 12mph
Humidity: 76%   Direction: 280°W
Pressure: 30.08"   Gusts: 20mph
Location:  39.24°N, 120.03°W
Report Text: KTRK 222355Z 28010G17KT 10SM -RA SCT025 BKN030 05/01 A3008 RMK NOSPECI 10080
Loading
Personal Weather Stations






























Interactive Weather Map New forecast layout! Learn more

10-Day Weather Forecast

Advertisements
Track Severe Weather on mobile